sensor_id;sensor_type;location;lat;lon;timestamp;P1;durP1;ratioP1;P2;durP2;ratioP2
20229;SDS011;12195;55.790;37.572;2023-04-03T00:01:55;6.47;;;4.58;;
20229;SDS011;12195;55.790;37.572;2023-04-03T00:04:37;6.90;;;4.15;;
20229;SDS011;12195;55.790;37.572;2023-04-03T00:07:10;7.72;;;4.28;;
20229;SDS011;12195;55.790;37.572;2023-04-03T00:09:42;11.95;;;4.33;;
20229;SDS011;12195;55.790;37.572;2023-04-03T00:12:14;9.10;;;4.70;;
20229;SDS011;12195;55.790;37.572;2023-04-03T00:14:46;9.15;;;5.20;;
20229;SDS011;12195;55.790;37.572;2023-04-03T00:17:18;7.65;;;4.12;;
20229;SDS011;12195;55.790;37.572;2023-04-03T00:19:50;12.58;;;4.65;;
20229;SDS011;12195;55.790;37.572;2023-04-03T00:22:23;10.55;;;5.40;;
20229;SDS011;12195;55.790;37.572;2023-04-03T00:24:56;14.43;;;5.40;;
20229;SDS011;12195;55.790;37.572;2023-04-03T00:27:29;13.15;;;6.15;;
20229;SDS011;12195;55.790;37.572;2023-04-03T00:30:02;13.05;;;5.08;;
20229;SDS011;12195;55.790;37.572;2023-04-03T00:32:34;7.92;;;5.25;;
20229;SDS011;12195;55.790;37.572;2023-04-03T00:35:06;12.43;;;5.35;;
20229;SDS011;12195;55.790;37.572;2023-04-03T00:37:40;9.43;;;5.50;;
20229;SDS011;12195;55.790;37.572;2023-04-03T00:40:13;10.03;;;5.17;;
20229;SDS011;12195;55.790;37.572;2023-04-03T00:42:47;9.65;;;5.33;;
20229;SDS011;12195;55.790;37.572;2023-04-03T00:45:25;7.70;;;4.55;;
20229;SDS011;12195;55.790;37.572;2023-04-03T00:48:02;9.88;;;4.70;;
20229;SDS011;12195;55.790;37.572;2023-04-03T00:50:38;8.28;;;5.15;;
20229;SDS011;12195;55.790;37.572;2023-04-03T00:53:14;12.73;;;5.65;;
20229;SDS011;12195;55.790;37.572;2023-04-03T00:55:52;13.48;;;5.80;;
20229;SDS011;12195;55.790;37.572;2023-04-03T00:58:28;7.55;;;4.83;;
20229;SDS011;12195;55.790;37.572;2023-04-03T01:01:03;14.60;;;5.40;;
20229;SDS011;12195;55.790;37.572;2023-04-03T01:03:36;11.43;;;4.67;;
20229;SDS011;12195;55.790;37.572;2023-04-03T01:06:08;11.60;;;5.20;;
20229;SDS011;12195;55.790;37.572;2023-04-03T01:08:41;16.87;;;5.12;;
20229;SDS011;12195;55.790;37.572;2023-04-03T01:11:13;12.23;;;5.25;;
20229;SDS011;12195;55.790;37.572;2023-04-03T01:13:46;14.28;;;5.12;;
20229;SDS011;12195;55.790;37.572;2023-04-03T01:16:19;11.63;;;5.33;;
20229;SDS011;12195;55.790;37.572;2023-04-03T01:18:51;8.33;;;4.67;;
20229;SDS011;12195;55.790;37.572;2023-04-03T01:24:20;6.78;;;4.70;;
20229;SDS011;12195;55.790;37.572;2023-04-03T01:26:51;6.87;;;4.75;;
20229;SDS011;12195;55.790;37.572;2023-04-03T01:29:23;20.10;;;5.45;;
20229;SDS011;12195;55.790;37.572;2023-04-03T01:31:57;9.40;;;4.97;;
20229;SDS011;12195;55.790;37.572;2023-04-03T01:34:31;11.80;;;4.78;;
20229;SDS011;12195;55.790;37.572;2023-04-03T01:37:04;9.70;;;4.33;;
20229;SDS011;12195;55.790;37.572;2023-04-03T01:39:36;11.00;;;4.80;;
20229;SDS011;12195;55.790;37.572;2023-04-03T01:42:08;14.63;;;7.90;;
20229;SDS011;12195;55.790;37.572;2023-04-03T01:44:43;15.32;;;6.22;;
20229;SDS011;12195;55.790;37.572;2023-04-03T01:47:15;22.50;;;7.12;;
20229;SDS011;12195;55.790;37.572;2023-04-03T01:49:47;8.03;;;5.10;;
20229;SDS011;12195;55.790;37.572;2023-04-03T01:52:20;9.40;;;5.45;;
20229;SDS011;12195;55.790;37.572;2023-04-03T01:54:53;12.70;;;5.08;;
20229;SDS011;12195;55.790;37.572;2023-04-03T01:57:24;10.70;;;5.37;;
20229;SDS011;12195;55.790;37.572;2023-04-03T01:59:57;15.25;;;5.70;;
20229;SDS011;12195;55.790;37.572;2023-04-03T02:02:30;15.53;;;6.10;;
20229;SDS011;12195;55.790;37.572;2023-04-03T02:05:02;13.58;;;6.05;;
20229;SDS011;12195;55.790;37.572;2023-04-03T02:07:34;11.93;;;5.90;;
20229;SDS011;12195;55.790;37.572;2023-04-03T02:10:06;13.30;;;6.12;;
20229;SDS011;12195;55.790;37.572;2023-04-03T02:12:38;12.10;;;5.60;;
20229;SDS011;12195;55.790;37.572;2023-04-03T02:15:11;10.20;;;6.20;;
20229;SDS011;12195;55.790;37.572;2023-04-03T02:17:43;14.20;;;5.80;;
20229;SDS011;12195;55.790;37.572;2023-04-03T02:20:15;14.10;;;6.15;;
20229;SDS011;12195;55.790;37.572;2023-04-03T02:22:48;13.15;;;5.97;;
20229;SDS011;12195;55.790;37.572;2023-04-03T02:25:20;13.22;;;5.58;;
20229;SDS011;12195;55.790;37.572;2023-04-03T02:27:52;15.63;;;6.62;;
20229;SDS011;12195;55.790;37.572;2023-04-03T02:30:25;11.65;;;5.67;;
20229;SDS011;12195;55.790;37.572;2023-04-03T02:32:57;11.50;;;5.92;;
20229;SDS011;12195;55.790;37.572;2023-04-03T02:35:30;15.13;;;6.08;;
20229;SDS011;12195;55.790;37.572;2023-04-03T02:38:02;13.98;;;5.67;;
20229;SDS011;12195;55.790;37.572;2023-04-03T02:40:35;15.88;;;6.80;;
20229;SDS011;12195;55.790;37.572;2023-04-03T02:43:08;18.23;;;6.40;;
20229;SDS011;12195;55.790;37.572;2023-04-03T02:45:40;12.30;;;5.67;;
20229;SDS011;12195;55.790;37.572;2023-04-03T02:48:12;10.78;;;5.87;;
20229;SDS011;12195;55.790;37.572;2023-04-03T02:50:46;12.47;;;6.33;;
20229;SDS011;12195;55.790;37.572;2023-04-03T02:53:19;16.85;;;6.25;;
20229;SDS011;12195;55.790;37.572;2023-04-03T02:55:51;12.03;;;5.80;;
20229;SDS011;12195;55.790;37.572;2023-04-03T02:58:24;13.95;;;6.08;;
20229;SDS011;12195;55.790;37.572;2023-04-03T03:00:56;11.65;;;5.97;;
20229;SDS011;12195;55.790;37.572;2023-04-03T03:03:28;13.43;;;5.83;;
20229;SDS011;12195;55.790;37.572;2023-04-03T03:06:06;14.98;;;6.33;;
20229;SDS011;12195;55.790;37.572;2023-04-03T03:08:36;9.68;;;6.45;;
20229;SDS011;12195;55.790;37.572;2023-04-03T03:11:08;13.98;;;5.83;;
20229;SDS011;12195;55.790;37.572;2023-04-03T03:13:41;12.50;;;6.58;;
20229;SDS011;12195;55.790;37.572;2023-04-03T03:16:13;17.32;;;6.55;;
20229;SDS011;12195;55.790;37.572;2023-04-03T03:18:45;19.20;;;6.90;;
20229;SDS011;12195;55.790;37.572;2023-04-03T03:21:18;14.80;;;6.83;;
20229;SDS011;12195;55.790;37.572;2023-04-03T03:23:50;14.58;;;6.50;;
20229;SDS011;12195;55.790;37.572;2023-04-03T03:26:22;18.12;;;7.92;;
20229;SDS011;12195;55.790;37.572;2023-04-03T03:28:55;18.20;;;6.45;;
20229;SDS011;12195;55.790;37.572;2023-04-03T03:31:27;26.60;;;7.42;;
20229;SDS011;12195;55.790;37.572;2023-04-03T03:34:00;16.40;;;7.87;;
20229;SDS011;12195;55.790;37.572;2023-04-03T03:36:32;12.45;;;6.90;;
20229;SDS011;12195;55.790;37.572;2023-04-03T03:39:05;17.30;;;7.25;;
20229;SDS011;12195;55.790;37.572;2023-04-03T03:41:37;17.60;;;6.97;;
20229;SDS011;12195;55.790;37.572;2023-04-03T03:44:10;22.67;;;7.42;;
20229;SDS011;12195;55.790;37.572;2023-04-03T03:46:44;15.08;;;6.83;;
20229;SDS011;12195;55.790;37.572;2023-04-03T03:49:17;17.62;;;7.60;;
20229;SDS011;12195;55.790;37.572;2023-04-03T03:51:49;15.70;;;7.22;;
20229;SDS011;12195;55.790;37.572;2023-04-03T03:54:22;18.65;;;7.15;;
20229;SDS011;12195;55.790;37.572;2023-04-03T03:56:54;19.85;;;6.83;;
20229;SDS011;12195;55.790;37.572;2023-04-03T03:59:27;18.15;;;6.97;;
20229;SDS011;12195;55.790;37.572;2023-04-03T04:01:59;17.07;;;7.47;;
20229;SDS011;12195;55.790;37.572;2023-04-03T04:04:31;18.85;;;7.67;;
20229;SDS011;12195;55.790;37.572;2023-04-03T04:07:03;19.67;;;7.30;;
20229;SDS011;12195;55.790;37.572;2023-04-03T04:09:36;22.75;;;8.55;;
20229;SDS011;12195;55.790;37.572;2023-04-03T04:12:10;20.17;;;7.47;;
20229;SDS011;12195;55.790;37.572;2023-04-03T04:14:42;15.98;;;7.45;;
20229;SDS011;12195;55.790;37.572;2023-04-03T04:17:17;24.65;;;7.85;;
20229;SDS011;12195;55.790;37.572;2023-04-03T04:19:51;16.73;;;7.03;;
20229;SDS011;12195;55.790;37.572;2023-04-03T04:22:24;19.12;;;7.92;;
20229;SDS011;12195;55.790;37.572;2023-04-03T04:24:56;17.90;;;7.62;;
20229;SDS011;12195;55.790;37.572;2023-04-03T04:27:29;19.75;;;7.60;;
20229;SDS011;12195;55.790;37.572;2023-04-03T04:30:03;16.17;;;7.65;;
20229;SDS011;12195;55.790;37.572;2023-04-03T04:32:36;17.17;;;7.75;;
20229;SDS011;12195;55.790;37.572;2023-04-03T04:35:09;27.55;;;8.38;;
20229;SDS011;12195;55.790;37.572;2023-04-03T04:37:44;22.50;;;7.90;;
20229;SDS011;12195;55.790;37.572;2023-04-03T04:40:16;23.95;;;8.30;;
20229;SDS011;12195;55.790;37.572;2023-04-03T04:42:48;19.82;;;7.62;;
20229;SDS011;12195;55.790;37.572;2023-04-03T04:45:22;27.37;;;8.47;;
20229;SDS011;12195;55.790;37.572;2023-04-03T04:47:57;29.35;;;8.65;;
20229;SDS011;12195;55.790;37.572;2023-04-03T04:50:29;14.75;;;7.67;;
20229;SDS011;12195;55.790;37.572;2023-04-03T04:53:01;27.67;;;7.97;;
20229;SDS011;12195;55.790;37.572;2023-04-03T04:55:34;19.07;;;8.23;;
20229;SDS011;12195;55.790;37.572;2023-04-03T04:58:07;12.47;;;7.25;;
20229;SDS011;12195;55.790;37.572;2023-04-03T05:00:40;23.42;;;8.40;;
20229;SDS011;12195;55.790;37.572;2023-04-03T05:03:12;27.55;;;8.40;;
20229;SDS011;12195;55.790;37.572;2023-04-03T05:05:45;22.62;;;8.53;;
20229;SDS011;12195;55.790;37.572;2023-04-03T05:08:17;30.85;;;8.60;;
20229;SDS011;12195;55.790;37.572;2023-04-03T05:10:50;30.30;;;8.65;;
20229;SDS011;12195;55.790;37.572;2023-04-03T05:13:26;29.77;;;8.10;;
20229;SDS011;12195;55.790;37.572;2023-04-03T05:15:58;24.95;;;9.00;;
20229;SDS011;12195;55.790;37.572;2023-04-03T05:18:31;26.95;;;8.43;;
20229;SDS011;12195;55.790;37.572;2023-04-03T05:21:05;28.60;;;8.85;;
20229;SDS011;12195;55.790;37.572;2023-04-03T05:23:37;25.77;;;8.75;;
20229;SDS011;12195;55.790;37.572;2023-04-03T05:26:10;34.50;;;9.08;;
20229;SDS011;12195;55.790;37.572;2023-04-03T05:28:43;34.63;;;8.78;;
20229;SDS011;12195;55.790;37.572;2023-04-03T05:31:17;30.20;;;8.90;;
20229;SDS011;12195;55.790;37.572;2023-04-03T05:33:49;29.10;;;8.35;;
20229;SDS011;12195;55.790;37.572;2023-04-03T05:36:24;29.63;;;8.35;;
20229;SDS011;12195;55.790;37.572;2023-04-03T05:38:58;32.33;;;7.92;;
20229;SDS011;12195;55.790;37.572;2023-04-03T05:41:31;22.73;;;8.30;;
20229;SDS011;12195;55.790;37.572;2023-04-03T05:44:03;46.90;;;12.13;;
20229;SDS011;12195;55.790;37.572;2023-04-03T05:46:35;24.47;;;8.65;;
20229;SDS011;12195;55.790;37.572;2023-04-03T05:49:08;36.38;;;10.10;;
20229;SDS011;12195;55.790;37.572;2023-04-03T05:51:41;45.25;;;10.32;;
20229;SDS011;12195;55.790;37.572;2023-04-03T05:54:20;21.30;;;7.83;;
20229;SDS011;12195;55.790;37.572;2023-04-03T05:56:56;26.77;;;8.95;;
20229;SDS011;12195;55.790;37.572;2023-04-03T05:59:29;51.68;;;11.28;;
20229;SDS011;12195;55.790;37.572;2023-04-03T06:02:01;48.08;;;9.45;;
20229;SDS011;12195;55.790;37.572;2023-04-03T06:04:34;47.08;;;11.73;;
20229;SDS011;12195;55.790;37.572;2023-04-03T06:07:06;33.18;;;9.15;;
20229;SDS011;12195;55.790;37.572;2023-04-03T06:09:44;51.20;;;10.28;;
20229;SDS011;12195;55.790;37.572;2023-04-03T06:12:18;25.52;;;8.65;;
20229;SDS011;12195;55.790;37.572;2023-04-03T06:14:51;21.70;;;8.03;;
20229;SDS011;12195;55.790;37.572;2023-04-03T06:17:23;33.98;;;8.98;;
20229;SDS011;12195;55.790;37.572;2023-04-03T06:19:57;35.63;;;9.68;;
20229;SDS011;12195;55.790;37.572;2023-04-03T06:22:30;20.95;;;8.05;;
20229;SDS011;12195;55.790;37.572;2023-04-03T06:25:02;37.33;;;9.08;;
20229;SDS011;12195;55.790;37.572;2023-04-03T06:27:35;24.52;;;8.00;;
20229;SDS011;12195;55.790;37.572;2023-04-03T06:30:07;42.17;;;8.78;;
20229;SDS011;12195;55.790;37.572;2023-04-03T06:32:39;31.60;;;8.60;;
20229;SDS011;12195;55.790;37.572;2023-04-03T06:35:13;32.63;;;9.28;;
20229;SDS011;12195;55.790;37.572;2023-04-03T06:37:45;26.20;;;8.13;;
20229;SDS011;12195;55.790;37.572;2023-04-03T06:40:21;25.62;;;7.83;;
20229;SDS011;12195;55.790;37.572;2023-04-03T06:42:56;26.33;;;7.85;;
20229;SDS011;12195;55.790;37.572;2023-04-03T06:45:28;29.37;;;7.95;;
20229;SDS011;12195;55.790;37.572;2023-04-03T06:48:01;31.73;;;7.47;;
20229;SDS011;12195;55.790;37.572;2023-04-03T06:50:33;22.82;;;8.05;;
20229;SDS011;12195;55.790;37.572;2023-04-03T06:53:05;19.42;;;6.80;;
20229;SDS011;12195;55.790;37.572;2023-04-03T06:55:38;31.05;;;8.75;;
20229;SDS011;12195;55.790;37.572;2023-04-03T06:58:10;43.83;;;9.40;;
20229;SDS011;12195;55.790;37.572;2023-04-03T07:00:42;24.95;;;8.00;;
20229;SDS011;12195;55.790;37.572;2023-04-03T07:03:15;36.65;;;9.53;;
20229;SDS011;12195;55.790;37.572;2023-04-03T07:05:47;22.50;;;8.05;;
20229;SDS011;12195;55.790;37.572;2023-04-03T07:08:19;18.37;;;7.55;;
20229;SDS011;12195;55.790;37.572;2023-04-03T07:10:53;28.52;;;8.30;;
20229;SDS011;12195;55.790;37.572;2023-04-03T07:13:25;22.10;;;7.65;;
20229;SDS011;12195;55.790;37.572;2023-04-03T07:15:58;27.80;;;8.08;;
20229;SDS011;12195;55.790;37.572;2023-04-03T07:18:30;22.98;;;7.62;;
20229;SDS011;12195;55.790;37.572;2023-04-03T07:21:04;23.27;;;7.85;;
20229;SDS011;12195;55.790;37.572;2023-04-03T07:23:36;18.80;;;7.85;;
20229;SDS011;12195;55.790;37.572;2023-04-03T07:26:09;17.62;;;7.53;;
20229;SDS011;12195;55.790;37.572;2023-04-03T07:28:41;21.45;;;8.05;;
20229;SDS011;12195;55.790;37.572;2023-04-03T07:31:15;13.83;;;7.67;;
20229;SDS011;12195;55.790;37.572;2023-04-03T07:36:23;27.07;;;8.55;;
20229;SDS011;12195;55.790;37.572;2023-04-03T07:38:55;25.50;;;9.30;;
20229;SDS011;12195;55.790;37.572;2023-04-03T07:41:28;27.32;;;8.63;;
20229;SDS011;12195;55.790;37.572;2023-04-03T07:44:00;16.23;;;7.50;;
20229;SDS011;12195;55.790;37.572;2023-04-03T07:46:33;24.75;;;8.55;;
20229;SDS011;12195;55.790;37.572;2023-04-03T07:49:05;24.63;;;8.35;;
20229;SDS011;12195;55.790;37.572;2023-04-03T07:51:38;27.20;;;8.60;;
20229;SDS011;12195;55.790;37.572;2023-04-03T07:54:10;23.47;;;7.75;;
20229;SDS011;12195;55.790;37.572;2023-04-03T07:56:42;16.95;;;7.60;;
20229;SDS011;12195;55.790;37.572;2023-04-03T07:59:15;23.25;;;8.00;;
20229;SDS011;12195;55.790;37.572;2023-04-03T08:01:47;21.48;;;8.60;;
20229;SDS011;12195;55.790;37.572;2023-04-03T08:04:19;46.75;;;11.43;;
20229;SDS011;12195;55.790;37.572;2023-04-03T08:06:52;33.05;;;9.15;;
20229;SDS011;12195;55.790;37.572;2023-04-03T08:09:24;31.90;;;9.50;;
20229;SDS011;12195;55.790;37.572;2023-04-03T08:11:57;31.85;;;9.63;;
20229;SDS011;12195;55.790;37.572;2023-04-03T08:14:31;30.10;;;9.48;;
20229;SDS011;12195;55.790;37.572;2023-04-03T08:17:05;31.65;;;9.43;;
20229;SDS011;12195;55.790;37.572;2023-04-03T08:19:39;31.53;;;9.50;;
20229;SDS011;12195;55.790;37.572;2023-04-03T08:22:11;61.70;;;12.33;;
20229;SDS011;12195;55.790;37.572;2023-04-03T08:24:43;55.23;;;12.35;;
20229;SDS011;12195;55.790;37.572;2023-04-03T08:27:17;32.42;;;9.13;;
20229;SDS011;12195;55.790;37.572;2023-04-03T08:29:50;65.32;;;12.50;;
20229;SDS011;12195;55.790;37.572;2023-04-03T08:32:22;41.98;;;11.50;;
20229;SDS011;12195;55.790;37.572;2023-04-03T08:34:55;43.40;;;10.32;;
20229;SDS011;12195;55.790;37.572;2023-04-03T08:37:27;33.10;;;10.80;;
20229;SDS011;12195;55.790;37.572;2023-04-03T08:39:59;33.88;;;10.78;;
20229;SDS011;12195;55.790;37.572;2023-04-03T08:48:06;38.65;;;12.05;;
20229;SDS011;12195;55.790;37.572;2023-04-03T08:50:38;47.85;;;11.93;;
20229;SDS011;12195;55.790;37.572;2023-04-03T08:55:48;45.45;;;11.18;;
20229;SDS011;12195;55.790;37.572;2023-04-03T08:58:22;28.40;;;9.63;;
20229;SDS011;12195;55.790;37.572;2023-04-03T09:01:04;23.47;;;9.55;;
20229;SDS011;12195;55.790;37.572;2023-04-03T09:03:38;40.43;;;11.28;;
20229;SDS011;12195;55.790;37.572;2023-04-03T09:06:29;29.77;;;10.23;;
20229;SDS011;12195;55.790;37.572;2023-04-03T09:14:29;29.82;;;10.23;;
20229;SDS011;12195;55.790;37.572;2023-04-03T09:17:03;28.85;;;11.38;;
20229;SDS011;12195;55.790;37.572;2023-04-03T09:22:23;33.87;;;10.27;;
20229;SDS011;12195;55.790;37.572;2023-04-03T09:25:05;39.83;;;11.03;;
20229;SDS011;12195;55.790;37.572;2023-04-03T09:27:39;29.23;;;10.60;;
20229;SDS011;12195;55.790;37.572;2023-04-03T09:30:17;31.35;;;9.33;;
20229;SDS011;12195;55.790;37.572;2023-04-03T09:32:47;57.15;;;10.75;;
20229;SDS011;12195;55.790;37.572;2023-04-03T09:35:25;21.85;;;8.95;;
20229;SDS011;12195;55.790;37.572;2023-04-03T09:40:45;32.83;;;10.35;;
20229;SDS011;12195;55.790;37.572;2023-04-03T09:43:21;21.07;;;9.20;;
20229;SDS011;12195;55.790;37.572;2023-04-03T09:46:24;16.73;;;8.63;;
20229;SDS011;12195;55.790;37.572;2023-04-03T09:49:02;37.33;;;10.88;;
20229;SDS011;12195;55.790;37.572;2023-04-03T09:51:30;32.38;;;9.03;;
20229;SDS011;12195;55.790;37.572;2023-04-03T09:54:23;21.87;;;9.90;;
20229;SDS011;12195;55.790;37.572;2023-04-03T09:57:13;21.07;;;8.23;;
20229;SDS011;12195;55.790;37.572;2023-04-03T09:59:47;31.80;;;10.43;;
20229;SDS011;12195;55.790;37.572;2023-04-03T10:02:30;31.10;;;10.25;;
20229;SDS011;12195;55.790;37.572;2023-04-03T10:05:25;37.17;;;10.63;;
20229;SDS011;12195;55.790;37.572;2023-04-03T10:08:10;50.50;;;10.88;;
20229;SDS011;12195;55.790;37.572;2023-04-03T10:10:46;48.35;;;12.50;;
20229;SDS011;12195;55.790;37.572;2023-04-03T10:13:20;73.87;;;13.40;;
20229;SDS011;12195;55.790;37.572;2023-04-03T10:16:03;51.65;;;13.15;;
20229;SDS011;12195;55.790;37.572;2023-04-03T10:18:48;38.23;;;10.83;;
20229;SDS011;12195;55.790;37.572;2023-04-03T10:21:29;31.30;;;10.78;;
20229;SDS011;12195;55.790;37.572;2023-04-03T10:29:36;40.10;;;10.18;;
20229;SDS011;12195;55.790;37.572;2023-04-03T10:34:56;42.17;;;11.53;;
20229;SDS011;12195;55.790;37.572;2023-04-03T10:37:30;31.60;;;10.18;;
20229;SDS011;12195;55.790;37.572;2023-04-03T10:40:24;44.42;;;10.93;;
20229;SDS011;12195;55.790;37.572;2023-04-03T10:51:40;27.70;;;10.10;;
20229;SDS011;12195;55.790;37.572;2023-04-03T10:54:29;28.92;;;8.83;;
20229;SDS011;12195;55.790;37.572;2023-04-03T10:57:10;36.85;;;9.95;;
20229;SDS011;12195;55.790;37.572;2023-04-03T10:59:44;24.95;;;9.05;;
20229;SDS011;12195;55.790;37.572;2023-04-03T11:02:31;81.17;;;13.83;;
20229;SDS011;12195;55.790;37.572;2023-04-03T11:05:29;28.10;;;9.30;;
20229;SDS011;12195;55.790;37.572;2023-04-03T11:08:05;35.25;;;8.48;;
20229;SDS011;12195;55.790;37.572;2023-04-03T11:10:40;19.80;;;7.80;;
20229;SDS011;12195;55.790;37.572;2023-04-03T11:13:20;47.10;;;8.83;;
20229;SDS011;12195;55.790;37.572;2023-04-03T11:15:59;32.53;;;8.07;;
20229;SDS011;12195;55.790;37.572;2023-04-03T11:18:41;33.63;;;7.85;;
20229;SDS011;12195;55.790;37.572;2023-04-03T11:21:19;25.68;;;7.62;;
20229;SDS011;12195;55.790;37.572;2023-04-03T11:23:52;34.13;;;8.33;;
20229;SDS011;12195;55.790;37.572;2023-04-03T11:26:27;19.07;;;7.37;;
20229;SDS011;12195;55.790;37.572;2023-04-03T11:29:08;22.40;;;7.30;;
20229;SDS011;12195;55.790;37.572;2023-04-03T11:34:33;18.67;;;7.35;;
20229;SDS011;12195;55.790;37.572;2023-04-03T11:40:19;21.62;;;6.47;;
20229;SDS011;12195;55.790;37.572;2023-04-03T11:45:33;17.40;;;6.15;;
20229;SDS011;12195;55.790;37.572;2023-04-03T11:51:37;25.68;;;8.33;;
20229;SDS011;12195;55.790;37.572;2023-04-03T11:53:48;33.90;;;8.53;;
20229;SDS011;12195;55.790;37.572;2023-04-03T12:01:57;51.73;;;10.32;;
20229;SDS011;12195;55.790;37.572;2023-04-03T12:04:30;35.68;;;8.65;;
20229;SDS011;12195;55.790;37.572;2023-04-03T12:07:12;24.80;;;8.05;;
20229;SDS011;12195;55.790;37.572;2023-04-03T12:12:28;23.95;;;7.83;;
20229;SDS011;12195;55.790;37.572;2023-04-03T12:15:54;23.30;;;8.60;;
20229;SDS011;12195;55.790;37.572;2023-04-03T12:17:52;25.77;;;7.90;;
20229;SDS011;12195;55.790;37.572;2023-04-03T12:23:23;22.30;;;7.80;;
20229;SDS011;12195;55.790;37.572;2023-04-03T12:28:54;26.87;;;8.30;;
20229;SDS011;12195;55.790;37.572;2023-04-03T12:31:36;36.23;;;8.15;;
20229;SDS011;12195;55.790;37.572;2023-04-03T12:37:07;48.15;;;10.23;;
20229;SDS011;12195;55.790;37.572;2023-04-03T12:40:01;23.27;;;6.87;;
20229;SDS011;12195;55.790;37.572;2023-04-03T12:45:22;27.27;;;7.42;;
20229;SDS011;12195;55.790;37.572;2023-04-03T12:47:56;20.72;;;6.10;;
20229;SDS011;12195;55.790;37.572;2023-04-03T12:50:29;28.07;;;7.53;;
20229;SDS011;12195;55.790;37.572;2023-04-03T12:53:07;27.98;;;6.95;;
20229;SDS011;12195;55.790;37.572;2023-04-03T12:55:44;21.35;;;6.12;;
20229;SDS011;12195;55.790;37.572;2023-04-03T12:58:23;25.17;;;5.83;;
20229;SDS011;12195;55.790;37.572;2023-04-03T13:01:04;16.05;;;4.67;;
20229;SDS011;12195;55.790;37.572;2023-04-03T13:03:39;25.82;;;5.15;;
20229;SDS011;12195;55.790;37.572;2023-04-03T13:06:18;23.60;;;5.70;;
20229;SDS011;12195;55.790;37.572;2023-04-03T13:09:01;25.62;;;5.28;;
20229;SDS011;12195;55.790;37.572;2023-04-03T13:11:35;19.35;;;6.05;;
20229;SDS011;12195;55.790;37.572;2023-04-03T13:14:17;20.08;;;4.55;;
20229;SDS011;12195;55.790;37.572;2023-04-03T13:19:45;21.95;;;5.70;;
20229;SDS011;12195;55.790;37.572;2023-04-03T13:25:03;18.65;;;3.75;;
20229;SDS011;12195;55.790;37.572;2023-04-03T13:27:33;16.40;;;4.53;;
20229;SDS011;12195;55.790;37.572;2023-04-03T13:30:05;18.82;;;4.87;;
20229;SDS011;12195;55.790;37.572;2023-04-03T13:32:40;27.67;;;5.95;;
20229;SDS011;12195;55.790;37.572;2023-04-03T13:35:25;28.57;;;6.12;;
20229;SDS011;12195;55.790;37.572;2023-04-03T13:38:00;26.68;;;6.72;;
20229;SDS011;12195;55.790;37.572;2023-04-03T13:40:46;13.93;;;4.40;;
20229;SDS011;12195;55.790;37.572;2023-04-03T13:43:27;17.25;;;5.08;;
20229;SDS011;12195;55.790;37.572;2023-04-03T13:46:19;20.17;;;5.37;;
20229;SDS011;12195;55.790;37.572;2023-04-03T13:48:48;19.62;;;5.65;;
20229;SDS011;12195;55.790;37.572;2023-04-03T13:51:24;21.33;;;5.37;;
20229;SDS011;12195;55.790;37.572;2023-04-03T13:53:59;26.85;;;6.15;;
20229;SDS011;12195;55.790;37.572;2023-04-03T13:56:33;18.17;;;5.28;;
20229;SDS011;12195;55.790;37.572;2023-04-03T14:01:53;32.50;;;7.03;;
20229;SDS011;12195;55.790;37.572;2023-04-03T14:04:28;26.87;;;6.42;;
20229;SDS011;12195;55.790;37.572;2023-04-03T14:07:04;25.48;;;6.12;;
20229;SDS011;12195;55.790;37.572;2023-04-03T14:09:37;21.73;;;6.05;;
20229;SDS011;12195;55.790;37.572;2023-04-03T14:12:15;17.62;;;5.60;;
20229;SDS011;12195;55.790;37.572;2023-04-03T14:14:46;17.65;;;6.30;;
20229;SDS011;12195;55.790;37.572;2023-04-03T14:17:19;12.45;;;6.53;;
20229;SDS011;12195;55.790;37.572;2023-04-03T14:19:55;14.05;;;5.85;;
20229;SDS011;12195;55.790;37.572;2023-04-03T14:22:31;16.35;;;7.37;;
20229;SDS011;12195;55.790;37.572;2023-04-03T14:25:04;16.97;;;6.92;;
20229;SDS011;12195;55.790;37.572;2023-04-03T14:27:39;15.72;;;6.12;;
20229;SDS011;12195;55.790;37.572;2023-04-03T14:30:17;9.63;;;5.33;;
20229;SDS011;12195;55.790;37.572;2023-04-03T14:32:54;8.73;;;5.15;;
20229;SDS011;12195;55.790;37.572;2023-04-03T14:35:27;11.57;;;5.45;;
20229;SDS011;12195;55.790;37.572;2023-04-03T14:37:59;16.00;;;5.42;;
20229;SDS011;12195;55.790;37.572;2023-04-03T14:40:31;15.10;;;5.15;;
20229;SDS011;12195;55.790;37.572;2023-04-03T14:43:05;17.95;;;6.85;;
20229;SDS011;12195;55.790;37.572;2023-04-03T14:45:39;22.58;;;6.67;;
20229;SDS011;12195;55.790;37.572;2023-04-03T14:48:21;22.27;;;6.70;;
20229;SDS011;12195;55.790;37.572;2023-04-03T14:50:55;28.98;;;6.62;;
20229;SDS011;12195;55.790;37.572;2023-04-03T14:53:29;28.63;;;6.87;;
20229;SDS011;12195;55.790;37.572;2023-04-03T14:56:08;27.22;;;6.83;;
20229;SDS011;12195;55.790;37.572;2023-04-03T14:58:45;39.45;;;7.20;;
20229;SDS011;12195;55.790;37.572;2023-04-03T15:01:19;40.57;;;7.60;;
20229;SDS011;12195;55.790;37.572;2023-04-03T15:03:51;23.62;;;7.28;;
20229;SDS011;12195;55.790;37.572;2023-04-03T15:06:24;12.20;;;5.80;;
20229;SDS011;12195;55.790;37.572;2023-04-03T15:08:57;14.35;;;6.83;;
20229;SDS011;12195;55.790;37.572;2023-04-03T15:11:29;16.30;;;5.80;;
20229;SDS011;12195;55.790;37.572;2023-04-03T15:14:01;12.55;;;6.47;;
20229;SDS011;12195;55.790;37.572;2023-04-03T15:16:33;18.37;;;5.53;;
20229;SDS011;12195;55.790;37.572;2023-04-03T15:19:05;30.08;;;6.90;;
20229;SDS011;12195;55.790;37.572;2023-04-03T15:21:38;25.45;;;6.85;;
20229;SDS011;12195;55.790;37.572;2023-04-03T15:24:10;10.90;;;6.40;;
20229;SDS011;12195;55.790;37.572;2023-04-03T15:26:43;18.35;;;7.90;;
20229;SDS011;12195;55.790;37.572;2023-04-03T15:29:15;13.72;;;6.90;;
20229;SDS011;12195;55.790;37.572;2023-04-03T15:31:47;15.25;;;7.05;;
20229;SDS011;12195;55.790;37.572;2023-04-03T15:34:21;27.62;;;8.20;;
20229;SDS011;12195;55.790;37.572;2023-04-03T15:36:53;19.17;;;7.17;;
20229;SDS011;12195;55.790;37.572;2023-04-03T15:39:25;23.77;;;6.95;;
20229;SDS011;12195;55.790;37.572;2023-04-03T15:41:58;11.88;;;5.75;;
20229;SDS011;12195;55.790;37.572;2023-04-03T15:44:40;18.10;;;6.63;;
20229;SDS011;12195;55.790;37.572;2023-04-03T15:47:06;13.27;;;5.40;;
20229;SDS011;12195;55.790;37.572;2023-04-03T15:49:38;20.35;;;6.92;;
20229;SDS011;12195;55.790;37.572;2023-04-03T15:52:11;13.18;;;5.72;;
20229;SDS011;12195;55.790;37.572;2023-04-03T15:54:43;33.15;;;7.30;;
20229;SDS011;12195;55.790;37.572;2023-04-03T15:57:15;40.45;;;7.58;;
20229;SDS011;12195;55.790;37.572;2023-04-03T15:59:48;28.10;;;6.12;;
20229;SDS011;12195;55.790;37.572;2023-04-03T16:02:20;33.88;;;7.62;;
20229;SDS011;12195;55.790;37.572;2023-04-03T16:04:53;15.38;;;6.58;;
20229;SDS011;12195;55.790;37.572;2023-04-03T16:07:26;18.98;;;6.03;;
20229;SDS011;12195;55.790;37.572;2023-04-03T16:09:58;27.60;;;7.70;;
20229;SDS011;12195;55.790;37.572;2023-04-03T16:12:30;27.50;;;7.95;;
20229;SDS011;12195;55.790;37.572;2023-04-03T16:15:02;29.65;;;7.00;;
20229;SDS011;12195;55.790;37.572;2023-04-03T16:17:36;27.42;;;7.25;;
20229;SDS011;12195;55.790;37.572;2023-04-03T16:20:10;22.83;;;8.50;;
20229;SDS011;12195;55.790;37.572;2023-04-03T16:22:43;25.05;;;7.28;;
20229;SDS011;12195;55.790;37.572;2023-04-03T16:25:16;30.65;;;7.00;;